• Join FlightAware (Why Join?)
  • Login
  • US Flag 
01:15AM EDT


 

Airport Tracker/Info


-or-


 

Live Flight TrackerFlight Track Log ✈ SWA3313 ✈ 21-Apr-2013 ✈ KBWI - KCLT

Flight Track Log - Related Links

Times and Time Zones

All times are in EDT time to prevent confusion due to time zone crossing. See the SWA3313 flight status page for this flight to view local times or setup timezone preferences in your user account.

Time Position Orientation Groundspeed Altitude Reporting Facility
EDT Latitude Longitude Course Direction KTS MPH feet Rate Location/Type
08:08PM 39.1500 -76.6500 211° Southwest 147 169 1,400  Level Potomac TRACON
08:09PM 39.1333 -76.7000 247° West 228 262 3,600 2,640 Climbing Potomac TRACON
08:10PM 39.1667 -76.8000 293° West 268 308 7,000 3,480 Climbing Potomac TRACON
08:11PM 39.2000 -76.8833 297° West 287 330 10,700 3,600 Climbing Potomac TRACON
08:12PM 39.2167 -76.9833 282° West 303 349 13,900 2,760 Climbing Potomac TRACON
08:13PM 39.2167 -77.1167 270° West 363 418 16,600 1,440 Climbing Potomac TRACON
08:14PM 39.1529 -77.1904 211° Southwest  Level FlightAware Approximate
08:14PM 39.1500 -77.2167 229° Southwest 363 418 17,000  Level Potomac TRACON
08:15PM 39.0667 -77.2833 212° Southwest 354 407 18,900 2,400 Climbing Potomac TRACON
08:16PM 38.9833 -77.3333 205° Southwest 368 423 21,800 2,040 Climbing Potomac TRACON
08:17PM 38.8667 -77.3667 193° South 392 451 23,000 960 Climbing Potomac TRACON
08:20PM 38.6389 -77.4283 192° South 374 430 25,200 1,140 Climbing Washington Center
08:21PM 38.5400 -77.4842 204° Southwest 379 436 27,000 1,560 Climbing Washington Center
08:22PM 38.4325 -77.5478 205° Southwest 384 442 28,400 1,680 Climbing Washington Center
08:23PM 38.3497 -77.6356 220° Southwest 389 448 30,400 1,800 Climbing Washington Center
08:24PM 38.2833 -77.7422 232° Southwest 389 448 32,000 780 Climbing Washington Center
08:25PM 38.2167 -77.8433 230° Southwest 384 442 32,000  Level Washington Center
08:26PM 38.1567 -77.9392 231° Southwest 375 432 32,000  Level Washington Center
08:27PM 38.0942 -78.0322 230° Southwest 363 418 32,000  Level Washington Center
08:28PM 38.0339 -78.1278 231° Southwest 358 412 32,000  Level Washington Center
08:29PM 37.9819 -78.2106 231° Southwest 341 392 32,000  Level Washington Center
08:30PM 37.9153 -78.3003 227° Southwest 347 399 32,000  Level Washington Center
08:31PM 37.8506 -78.3928 228° Southwest 352 405 32,000  Level Washington Center
08:32PM 37.7858 -78.4875 229° Southwest 352 405 32,000  Level Washington Center
08:33PM 37.7144 -78.5897 229° Southwest 357 411 32,000  Level Washington Center
08:34PM 37.6497 -78.6817 228° Southwest 357 411 32,000  Level Washington Center
08:35PM 37.5847 -78.7733 228° Southwest 357 411 32,000  Level Washington Center
08:36PM 37.5197 -78.8650 228° Southwest 357 411 32,000  Level Washington Center
08:37PM 37.4631 -78.9436 228° Southwest 357 411 32,000  Level Washington Center
08:38PM 37.4003 -79.0322 228° Southwest 357 411 32,000  Level Washington Center
08:39PM 37.3350 -79.1233 228° Southwest 357 411 32,000  Level Washington Center
08:40PM 37.2719 -79.2092 227° Southwest 357 411 32,000  Level Washington Center
08:41PM 37.1967 -79.2839 218° Southwest 350 403 32,000  Level Washington Center
08:42PM 37.1172 -79.3503 214° Southwest 350 403 32,000  Level Washington Center
08:43PM 37.0317 -79.4217 214° Southwest 350 403 32,000  Level Washington Center
08:44PM 36.9503 -79.4878 213° Southwest 350 403 32,000  Level Washington Center
08:45PM 36.8664 -79.5589 214° Southwest 357 411 32,000  Level Washington Center
08:46PM 36.7828 -79.6272 213° Southwest 357 411 32,000 -480 Level Washington Center
08:48PM 36.6075 -79.7664 213° Southwest 356 410 30,500 -1,320 Descending Atlanta Center
08:49PM 36.5242 -79.8331 213° Southwest 356 410 27,800 -2,640 Descending Atlanta Center
08:50PM 36.4369 -79.9047 213° Southwest 363 418 25,300 -2,700 Descending Atlanta Center
08:51PM 36.3436 -79.9792 213° Southwest 363 418 22,400 -1,680 Descending Atlanta Center
08:52PM 36.2644 -80.0447 214° Southwest 358 412 22,000 -360 Descending Atlanta Center
08:53PM 36.1939 -80.1203 221° Southwest 346 398 21,700 -720 Descending Atlanta Center
08:54PM 36.1786 -80.2342 261° West 321 369 20,600 -1,200 Descending Atlanta Center
08:55PM 36.1400 -80.3311 244° Southwest 327 376 19,300 -1,320 Descending Atlanta Center
08:56PM 36.0531 -80.3531 192° South 306 352 18,000 -1,800 Descending Atlanta Center
08:57PM 35.9642 -80.3856 196° South 320 368 15,800 -2,400 Descending Atlanta Center
08:57PM 35.9025 -80.4089 197° South 334 384 14,200 -2,520 Descending Atlanta Center
08:58PM 35.8650 -80.4181 191° South 334 384 13,300 -1,140 Descending Atlanta Center
08:59PM 35.7972 -80.4519 202° Southwest 301 346 12,700 -840 Descending Atlanta Center
09:00PM 35.7278 -80.5061 212° Southwest 267 307 11,700 -1,020 Descending Atlanta Center
09:01PM 35.6647 -80.5600 215° Southwest 277 319 10,700 -1,020 Descending Atlanta Center
09:02PM 35.5994 -80.6139 214° Southwest 281 323 9,700 -900 Descending Atlanta Center
09:03PM 35.5403 -80.6622 214° Southwest 278 320 9,000 -360 Descending Atlanta Center
09:04PM 35.4772 -80.7158 215° Southwest 281 323 9,000  Level Atlanta Center
09:05PM 35.4078 -80.7719 213° Southwest 281 323 9,000  Level Atlanta Center
09:06PM 35.3444 -80.8231 213° Southwest 275 316 9,000  Level Atlanta Center
09:07PM 35.2864 -80.8431 196° South 231 266 9,000 -300 Level Atlanta Center
09:08PM 35.2175 -80.8356 175° South 229 264 8,400 -840 Descending Atlanta Center
09:09PM 35.1528 -80.8306 176° South 225 259 7,300 -1,260 Descending Atlanta Center
09:10PM 35.0961 -80.8250 175° South 216 249 6,000 -1,320 Descending Atlanta Center
09:11PM 35.0250 -80.8203 177° South 218 251 4,600 -960 Descending Atlanta Center
09:12PM 34.9667 -80.8147 176° South 215 247 4,000 -300 Descending Atlanta Center
09:13PM 34.9472 -80.8714 247° West 194 223 4,000  Level Atlanta Center
09:14PM 34.9711 -80.9136 305° West 175 201 4,000  Level Atlanta Center
09:15PM 35.0297 -80.9214 354° North 170 196 4,000 -360 Level Atlanta Center
09:16PM 35.0633 -80.9253 355° North 173 199 3,400 -960 Descending Atlanta Center
09:17PM 35.1219 -80.9306 356° North 170 196 2,200 -900 Descending Atlanta Center
09:18PM 35.1636 -80.9342 356° North 139 160 1,500 -720 Descending Atlanta Center
09:20PM 35.2000 -80.9333 North  Level FlightAware Approximate
09:27PM 35.2137 -80.9491 North  Level Estimated